Time;durP1;ratioP1;P1;durP2;ratioP2;P2;SDS_P1;SDS_P2;PMS_P1;PMS_P2;Temp;Humidity;BMP_temperature;BMP_pressure;BME280_temperature;BME280_humidity;BME280_pressure;Samples;Min_cycle;Max_cycle;Signal;HPM_P1;HPM_P2
2020/12/13 00:01:01;;;;;;;75.73;26.90;;;;;;;1.53;87.03;100182.88;5098653;28;20457;-61
2020/12/13 00:03:27;;;;;;;82.87;28.37;;;;;;;1.74;86.68;100184.34;5099536;28;20526;-61
2020/12/13 00:05:55;;;;;;;74.13;28.60;;;;;;;1.73;86.55;100182.59;5097817;28;20483;-61
2020/12/13 00:08:23;;;;;;;81.53;29.03;;;;;;;1.75;86.23;100182.69;5099334;28;20510;-62
2020/12/13 00:10:49;;;;;;;79.83;28.27;;;;;;;1.67;86.26;100184.72;5098719;28;20449;-62
2020/12/13 00:13:16;;;;;;;78.30;27.20;;;;;;;1.69;86.42;100175.50;5099135;28;20465;-62
2020/12/13 00:15:43;;;;;;;64.40;26.33;;;;;;;1.68;86.91;100183.94;5097855;28;20535;-61
2020/12/13 00:18:09;;;;;;;71.10;27.33;;;;;;;1.65;86.75;100185.38;5099204;28;20516;-61
2020/12/13 00:20:36;;;;;;;91.83;29.60;;;;;;;1.61;87.01;100189.38;5097956;28;20744;-62
2020/12/13 00:23:03;;;;;;;74.90;27.63;;;;;;;1.68;86.73;100191.56;5098867;28;20877;-61
2020/12/13 00:25:30;;;;;;;79.57;29.53;;;;;;;1.64;87.06;100187.03;5096939;28;20566;-61
2020/12/13 00:27:57;;;;;;;70.90;26.57;;;;;;;1.72;86.71;100180.81;5099106;28;20487;-62
2020/12/13 00:30:23;;;;;;;67.43;28.53;;;;;;;1.46;87.39;100190.09;5097689;28;20558;-61
2020/12/13 00:32:51;;;;;;;80.03;27.07;;;;;;;1.53;87.33;100188.84;5099150;28;20430;-62
2020/12/13 00:35:17;;;;;;;75.27;28.03;;;;;;;1.54;87.22;100194.81;5096785;28;20448;-61
2020/12/13 00:37:44;;;;;;;76.23;26.87;;;;;;;1.54;87.23;100192.28;5098344;28;20478;-62
2020/12/13 00:40:11;;;;;;;76.93;29.27;;;;;;;1.45;87.40;100198.47;5097833;28;20452;-62
2020/12/13 00:42:38;;;;;;;74.40;27.07;;;;;;;1.53;87.39;100204.09;5098912;28;20436;-61
2020/12/13 00:45:05;;;;;;;77.07;27.27;;;;;;;1.64;86.83;100204.84;5096720;28;20989;-62
2020/12/13 00:47:32;;;;;;;72.67;26.70;;;;;;;1.63;86.92;100209.84;5098369;28;20456;-61
2020/12/13 00:49:59;;;;;;;78.27;26.80;;;;;;;1.51;87.30;100213.28;5097162;28;20477;-61
2020/12/13 00:52:27;;;;;;;75.73;27.90;;;;;;;1.57;87.60;100215.38;5098664;28;20515;-62
2020/12/13 00:54:53;;;;;;;83.87;28.73;;;;;;;1.43;87.65;100228.00;5096879;28;20561;-62
2020/12/13 00:57:25;;;;;;;92.33;29.47;;;;;;;1.42;87.78;100231.31;5098460;28;20550;-61
2020/12/13 00:59:51;;;;;;;86.43;27.90;;;;;;;1.41;88.19;100232.09;5097009;28;20456;-62
2020/12/13 01:02:18;;;;;;;75.43;25.20;;;;;;;1.51;87.53;100240.38;5098427;28;20435;-62
2020/12/13 01:04:46;;;;;;;91.70;27.40;;;;;;;1.40;88.21;100237.06;5096693;28;20531;-62
2020/12/13 01:07:13;;;;;;;78.20;27.10;;;;;;;1.47;87.59;100242.72;5098136;28;20890;-61
2020/12/13 01:09:40;;;;;;;79.40;27.20;;;;;;;1.57;87.24;100241.69;5097379;28;20458;-62
2020/12/13 01:12:06;;;;;;;82.47;27.50;;;;;;;1.64;86.82;100242.13;5098111;28;20481;-61
2020/12/13 01:14:34;;;;;;;86.10;29.50;;;;;;;1.83;86.55;100234.06;5096252;28;20797;-62
2020/12/13 01:17:01;;;;;;;84.00;28.23;;;;;;;1.73;86.77;100240.19;5097814;28;20425;-61
2020/12/13 01:19:27;;;;;;;67.23;25.80;;;;;;;1.62;87.01;100234.38;5097180;28;20466;-62
2020/12/13 01:21:56;;;;;;;69.20;24.60;;;;;;;1.59;87.13;100234.19;5097940;28;20537;-62
2020/12/13 01:24:22;;;;;;;84.73;28.67;;;;;;;1.54;87.21;100226.19;5096957;28;20537;-62
2020/12/13 01:26:49;;;;;;;79.43;26.47;;;;;;;1.58;87.31;100237.47;5097624;28;20980;-61
2020/12/13 01:29:16;;;;;;;64.73;25.67;;;;;;;1.58;87.38;100237.47;5096977;28;20533;-61
2020/12/13 01:31:45;;;;;;;78.83;26.00;;;;;;;1.75;86.83;100242.06;5097406;28;20482;-62
2020/12/13 01:34:12;;;;;;;81.43;28.03;;;;;;;1.74;86.73;100239.41;5096622;28;20479;-62
2020/12/13 01:36:38;;;;;;;78.20;25.63;;;;;;;1.61;87.01;100242.78;5097477;28;20481;-62
2020/12/13 01:39:05;;;;;;;75.63;26.00;;;;;;;1.67;87.33;100244.84;5097118;28;20485;-62
2020/12/13 01:41:32;;;;;;;69.23;25.13;;;;;;;1.78;86.65;100250.72;5074087;28;20904;-62
2020/12/13 01:44:00;;;;;;;69.03;25.17;;;;;;;1.83;86.51;100249.34;5075034;28;20524;-61
2020/12/13 01:46:28;;;;;;;68.40;25.93;;;;;;;1.71;86.72;100247.75;5074914;28;20509;-62
2020/12/13 01:49:00;;;;;;;72.47;26.20;;;;;;;1.67;86.71;100247.41;5075742;28;20464;-62
2020/12/13 01:51:39;;;;;;;77.63;26.37;;;;;;;1.61;87.16;100252.97;5074575;28;20474;-61
2020/12/13 01:54:11;;;;;;;62.17;24.73;;;;;;;1.63;87.35;100246.31;5075356;28;20438;-62
2020/12/13 01:56:39;;;;;;;63.17;25.37;;;;;;;1.68;87.36;100249.16;5075393;28;20490;-62
2020/12/13 01:59:07;;;;;;;73.23;25.13;;;;;;;1.71;86.79;100246.84;5075438;28;20542;-62
2020/12/13 02:01:36;;;;;;;70.27;26.00;;;;;;;1.72;86.77;100246.97;5074402;28;20483;-61
2020/12/13 02:04:06;;;;;;;79.00;25.93;;;;;;;1.75;86.47;100248.84;5075244;28;20470;-61
2020/12/13 02:06:34;;;;;;;67.17;26.13;;;;;;;1.66;87.12;100249.09;5073852;28;20820;-61
2020/12/13 02:09:00;;;;;;;63.83;26.00;;;;;;;1.69;86.98;100256.91;5075843;28;20459;-62
2020/12/13 02:11:31;;;;;;;65.00;25.20;;;;;;;1.78;86.95;100256.66;5075013;28;20479;-61
2020/12/13 02:13:58;;;;;;;62.53;24.60;;;;;;;1.78;86.74;100253.25;5075298;28;20539;-62
2020/12/13 02:16:25;;;;;;;73.67;25.73;;;;;;;1.69;87.00;100261.13;5074171;28;20481;-62
2020/12/13 02:18:52;;;;;;;71.10;25.13;;;;;;;1.65;86.98;100267.66;5075110;28;20455;-62
2020/12/13 02:21:19;;;;;;;65.53;25.30;;;;;;;1.66;87.04;100266.88;5074461;28;20485;-62
2020/12/13 02:23:47;;;;;;;64.50;24.97;;;;;;;1.60;87.35;100271.53;5075720;28;20877;-62
2020/12/13 02:26:14;;;;;;;71.57;25.80;;;;;;;1.55;87.42;100268.69;5073712;28;20497;-62
2020/12/13 02:28:41;;;;;;;72.17;25.43;;;;;;;1.55;87.39;100271.22;5094737;28;20951;-61
2020/12/13 02:31:09;;;;;;;67.30;24.70;;;;;;;1.64;87.35;100272.63;5094831;28;20562;-61
2020/12/13 02:33:36;;;;;;;63.50;24.90;;;;;;;1.60;87.05;100277.50;5095998;28;20462;-62
2020/12/13 02:36:03;;;;;;;67.83;23.47;;;;;;;1.69;86.91;100269.63;5094875;28;20560;-62
2020/12/13 02:38:31;;;;;;;60.03;24.37;;;;;;;1.62;86.93;100275.06;5095920;28;20493;-62
2020/12/13 02:40:58;;;;;;;67.30;23.43;;;;;;;1.49;87.46;100275.88;5095489;28;20944;-61
2020/12/13 02:43:25;;;;;;;65.83;24.77;;;;;;;1.61;87.30;100278.38;5096417;28;20456;-62
2020/12/13 02:45:52;;;;;;;64.97;26.30;;;;;;;1.56;87.70;100282.25;5094428;28;20452;-62
2020/12/13 02:48:19;;;;;;;60.63;22.60;;;;;;;1.63;87.34;100283.59;5095984;28;20452;-62
2020/12/13 02:50:46;;;;;;;75.60;26.10;;;;;;;1.62;87.31;100287.78;5094626;28;20937;-62
2020/12/13 02:53:13;;;;;;;69.17;24.23;;;;;;;1.61;87.40;100283.47;5096277;28;20429;-62
2020/12/13 02:55:39;;;;;;;69.27;24.43;;;;;;;1.61;87.50;100288.56;5094813;28;20824;-62
2020/12/13 02:58:07;;;;;;;84.47;27.07;;;;;;;1.69;86.91;100292.53;5095099;28;20504;-62
2020/12/13 03:00:33;;;;;;;65.30;24.10;;;;;;;1.52;87.28;100292.97;5073677;28;20483;-61
2020/12/13 03:03:00;;;;;;;60.37;23.23;;;;;;;1.72;86.96;100291.84;5076279;28;20429;-61
2020/12/13 03:05:26;;;;;;;67.40;25.50;;;;;;;1.65;87.43;100300.72;5074754;28;20562;-62
2020/12/13 03:07:53;;;;;;;66.23;25.67;;;;;;;1.65;87.67;100304.91;5076113;28;20453;-62
2020/12/13 03:10:20;;;;;;;69.10;25.60;;;;;;;1.54;88.21;100310.13;5074913;28;20473;-62
2020/12/13 03:12:47;;;;;;;69.60;26.03;;;;;;;1.71;87.25;100307.91;5075952;28;20996;-62
2020/12/13 03:15:14;;;;;;;67.83;23.07;;;;;;;1.60;88.04;100314.78;5074474;28;20475;-62
2020/12/13 03:17:41;;;;;;;70.03;26.20;;;;;;;1.58;88.04;100312.13;5079773;28;20748;-62
2020/12/13 03:20:08;;;;;;;70.60;25.00;;;;;;;1.57;88.42;100317.97;5079688;28;20536;-62
2020/12/13 03:22:35;;;;;;;64.40;23.77;;;;;;;1.45;88.40;100317.13;5080122;28;20491;-61
2020/12/13 03:25:03;;;;;;;132.13;48.77;;;;;;;1.60;89.95;100314.78;5078546;28;20475;-62
2020/12/13 03:27:29;;;;;;;89.33;32.53;;;;;;;1.41;89.35;100316.00;5079857;28;20517;-61
2020/12/13 03:29:56;;;;;;;160.00;59.33;;;;;;;1.68;90.80;100315.28;5077961;28;20907;-61
2020/12/13 03:32:24;;;;;;;120.67;43.47;;;;;;;1.61;90.72;100319.97;5079927;28;20457;-62
2020/12/13 03:34:53;;;;;;;74.67;26.50;;;;;;;1.52;89.79;100315.88;5078094;28;20781;-61
2020/12/13 03:37:20;;;;;;;99.07;34.20;;;;;;;1.51;90.42;100319.19;5079940;28;20825;-61
2020/12/13 03:39:47;;;;;;;77.43;25.97;;;;;;;1.35;90.02;100313.03;5078895;28;20447;-62
2020/12/13 03:42:13;;;;;;;92.90;32.20;;;;;;;1.51;90.93;100317.53;5079774;28;20516;-62
2020/12/13 03:44:40;;;;;;;103.87;37.80;;;;;;;1.53;91.29;100321.06;5093008;28;20542;-62
2020/12/13 03:47:06;;;;;;;79.13;27.13;;;;;;;1.44;89.93;100322.97;5100021;28;20481;-61
2020/12/13 03:49:34;;;;;;;88.77;31.50;;;;;;;1.47;90.31;100326.63;5098534;28;20860;-62
2020/12/13 03:52:01;;;;;;;104.87;34.77;;;;;;;1.61;90.49;100330.16;5099994;28;20540;-62
2020/12/13 03:54:27;;;;;;;82.73;29.60;;;;;;;1.43;90.20;100324.63;5098309;28;20928;-62
2020/12/13 03:56:54;;;;;;;83.93;30.00;;;;;;;1.45;90.57;100333.22;5099735;28;20494;-62
2020/12/13 03:59:21;;;;;;;89.50;30.67;;;;;;;1.83;90.62;100346.03;5098837;28;20489;-62
2020/12/13 04:01:47;;;;;;;83.77;28.60;;;;;;;2.06;89.77;100342.56;5099580;28;20813;-62
2020/12/13 04:04:14;;;;;;;83.30;28.20;;;;;;;2.29;88.55;100338.16;5098643;28;20457;-62
2020/12/13 04:06:42;;;;;;;71.37;24.90;;;;;;;2.04;87.69;100345.78;5099529;28;20464;-62
2020/12/13 04:09:08;;;;;;;83.40;27.77;;;;;;;2.05;88.19;100345.00;5099195;28;20485;-62
2020/12/13 04:11:36;;;;;;;73.07;26.20;;;;;;;2.07;88.20;100345.97;5099223;28;20462;-62
2020/12/13 04:14:02;;;;;;;77.97;27.50;;;;;;;1.82;88.46;100351.91;5099123;28;20437;-62
2020/12/13 04:16:30;;;;;;;65.33;23.10;;;;;;;2.01;87.51;100352.41;5098840;28;20467;-62
2020/12/13 04:18:57;;;;;;;78.13;26.83;;;;;;;1.86;87.28;100351.34;5099298;28;20457;-62
2020/12/13 04:21:25;;;;;;;67.73;25.63;;;;;;;2.00;87.99;100355.72;5098459;28;20842;-62
2020/12/13 04:23:52;;;;;;;63.80;25.33;;;;;;;1.87;87.28;100354.00;5099126;28;20529;-62
2020/12/13 04:26:19;;;;;;;73.23;27.50;;;;;;;1.80;87.84;100356.00;5098366;28;20469;-61
2020/12/13 04:28:46;;;;;;;76.30;26.10;;;;;;;2.03;88.45;100357.59;5098447;28;20455;-61
2020/12/13 04:31:13;;;;;;;77.63;26.67;;;;;;;1.75;88.38;100355.69;5097744;28;20478;-62
2020/12/13 04:33:39;;;;;;;83.83;26.80;;;;;;;1.68;89.05;100356.88;5099066;28;20443;-62
2020/12/13 04:36:06;;;;;;;81.80;27.40;;;;;;;1.82;88.21;100369.69;5096677;28;20488;-62
2020/12/13 04:38:33;;;;;;;77.37;26.40;;;;;;;1.65;88.10;100371.06;5099186;28;20529;-61
2020/12/13 04:41:00;;;;;;;78.47;27.27;;;;;;;1.56;88.82;100376.34;5098033;28;20480;-62
2020/12/13 04:43:27;;;;;;;75.67;26.77;;;;;;;1.58;88.97;100365.53;5098679;28;20466;-62
2020/12/13 04:45:54;;;;;;;82.43;27.93;;;;;;;1.49;89.50;100364.88;5097571;28;20470;-62
2020/12/13 04:48:24;;;;;;;65.90;25.60;;;;;;;1.47;89.18;100366.41;5098924;28;20569;-62
2020/12/13 04:50:51;;;;;;;77.53;26.87;;;;;;;1.37;89.80;100369.94;5098056;28;20532;-61
2020/12/13 04:53:19;;;;;;;68.93;23.00;;;;;;;1.48;89.55;100358.00;5098696;28;20711;-62
2020/12/13 04:55:53;;;;;;;77.23;25.67;;;;;;;1.75;88.33;100370.94;5097489;28;20921;-61
2020/12/13 04:58:21;;;;;;;73.87;25.27;;;;;;;1.62;88.79;100376.81;5098658;28;20478;-61
2020/12/13 05:00:53;;;;;;;77.40;27.13;;;;;;;1.56;88.76;100384.00;5097666;28;20456;-61
2020/12/13 05:03:20;;;;;;;69.37;26.93;;;;;;;1.54;89.09;100385.53;5098290;28;20465;-61
2020/12/13 05:05:47;;;;;;;67.43;25.20;;;;;;;1.51;88.81;100391.28;5097263;28;20937;-61
2020/12/13 05:08:13;;;;;;;69.40;25.20;;;;;;;1.54;88.85;100393.19;5098506;28;20482;-62
2020/12/13 05:10:40;;;;;;;69.20;25.97;;;;;;;1.41;89.06;100392.28;5096999;28;20828;-62
2020/12/13 05:13:08;;;;;;;75.43;27.07;;;;;;;1.40;89.07;100392.16;5098303;28;20434;-62
2020/12/13 05:15:36;;;;;;;83.47;27.20;;;;;;;1.32;89.72;100391.59;5096917;28;20539;-62
2020/12/13 05:18:03;;;;;;;66.33;25.47;;;;;;;1.35;89.42;100397.78;5098243;28;20447;-62
2020/12/13 05:20:30;;;;;;;68.70;24.10;;;;;;;1.36;89.67;100398.69;5097396;28;20468;-62
2020/12/13 05:22:58;;;;;;;73.37;26.43;;;;;;;1.37;89.54;100397.91;5098182;28;20599;-62
2020/12/13 05:25:32;;;;;;;77.77;25.17;;;;;;;1.40;89.14;100394.72;5097026;28;20484;-61
2020/12/13 05:28:00;;;;;;;73.13;26.40;;;;;;;1.40;88.92;100393.06;5097884;28;20531;-62
2020/12/13 05:30:31;;;;;;;72.27;24.90;;;;;;;1.32;89.29;100396.69;5097231;28;20885;-61
2020/12/13 05:33:04;;;;;;;75.10;27.07;;;;;;;1.41;88.93;100399.91;5098122;28;20462;-62
2020/12/13 05:35:31;;;;;;;68.77;23.23;;;;;;;1.40;89.10;100399.78;5096431;28;20470;-62
2020/12/13 05:37:58;;;;;;;73.43;26.93;;;;;;;1.52;88.78;100404.88;5097758;28;20912;-62
2020/12/13 05:40:25;;;;;;;73.67;25.77;;;;;;;1.51;88.72;100403.09;5096160;28;20536;-62
2020/12/13 05:42:59;;;;;;;64.60;24.20;;;;;;;1.34;89.32;100403.66;5097543;28;20458;-62
2020/12/13 05:45:40;;;;;;;69.70;25.43;;;;;;;1.25;89.21;100405.53;5096492;28;20452;-62
2020/12/13 05:51:00;;;;;;;71.63;25.83;;;;;;;1.30;89.30;100413.50;5096964;28;20517;-62
2020/12/13 05:53:27;;;;;;;65.83;25.50;;;;;;;1.29;89.34;100412.59;5097519;28;20424;-61
2020/12/13 05:55:56;;;;;;;77.90;25.53;;;;;;;1.29;89.27;100416.81;5096141;28;20477;-61
2020/12/13 05:58:25;;;;;;;78.13;26.00;;;;;;;1.31;89.30;100413.63;5097502;28;20432;-62
2020/12/13 06:00:54;;;;;;;75.67;26.63;;;;;;;1.34;89.05;100400.25;5096672;28;20474;-61
2020/12/13 06:03:32;;;;;;;79.93;28.13;;;;;;;1.37;88.55;100409.75;5097306;28;20461;-61
2020/12/13 06:06:09;;;;;;;66.13;24.73;;;;;;;1.27;89.31;100406.53;5096099;28;20478;-62
2020/12/13 06:09:05;;;;;;;85.50;27.17;;;;;;;1.24;89.33;100413.03;5097351;28;20514;-62
2020/12/13 06:11:50;;;;;;;85.97;27.70;;;;;;;1.18;89.69;100410.94;5089348;28;20454;-62
2020/12/13 06:14:18;;;;;;;86.20;28.40;;;;;;;1.26;89.65;100420.00;5095951;28;20577;-62
2020/12/13 06:16:46;;;;;;;84.87;26.20;;;;;;;1.13;89.84;100425.81;5097171;28;20488;-62
2020/12/13 06:19:15;;;;;;;80.27;26.87;;;;;;;1.18;89.90;100419.44;5096582;28;20455;-62
2020/12/13 06:21:43;;;;;;;95.20;27.47;;;;;;;1.20;90.51;100422.09;5096992;28;20509;-62
2020/12/13 06:24:10;;;;;;;86.87;28.80;;;;;;;1.31;90.58;100435.59;5095939;28;20523;-63
2020/12/13 06:26:37;;;;;;;87.28;30.73;;;;;;;1.37;90.51;100437.72;5096363;28;20796;-62
2020/12/13 06:29:05;;;;;;;83.33;27.30;;;;;;;1.24;90.17;100436.81;5097010;28;20224;-61
2020/12/13 06:31:33;;;;;;;91.90;28.73;;;;;;;1.23;91.06;100444.31;5096215;28;20473;-62
2020/12/13 06:34:00;;;;;;;98.60;33.13;;;;;;;1.23;90.95;100435.03;5096293;28;20458;-62
2020/12/13 06:36:28;;;;;;;114.38;31.50;;;;;;;1.15;90.47;100434.47;5095548;28;20482;-62
2020/12/13 06:38:56;;;;;;;90.67;30.83;;;;;;;1.19;90.71;100446.63;5096788;28;20192;-61
2020/12/13 06:41:24;;;;;;;90.63;28.77;;;;;;;1.20;91.19;100445.88;5094598;28;20479;-62
2020/12/13 06:44:05;;;;;;;80.33;27.63;;;;;;;1.17;90.83;100442.19;5096507;28;20890;-61
2020/12/13 06:46:38;;;;;;;94.73;30.33;;;;;;;1.26;91.20;100439.44;5095528;28;20532;-62
2020/12/13 06:49:05;;;;;;;104.93;30.37;;;;;;;1.25;90.55;100440.22;5096681;28;20480;-61
2020/12/13 06:51:34;;;;;;;89.63;29.20;;;;;;;1.27;90.60;100439.56;5094948;28;20452;-62
2020/12/13 06:54:02;;;;;;;92.70;29.40;;;;;;;1.25;90.67;100437.69;5096223;28;20417;-61
2020/12/13 06:56:29;;;;;;;85.03;30.03;;;;;;;1.28;90.34;100445.56;5095309;28;20470;-61
2020/12/13 06:58:58;;;;;;;98.67;30.37;;;;;;;1.36;90.35;100444.44;5096522;28;20459;-62
2020/12/13 07:01:27;;;;;;;93.30;29.90;;;;;;;1.18;90.11;100444.84;5095400;28;20478;-62
2020/12/13 07:03:56;;;;;;;83.10;27.40;;;;;;;1.15;90.95;100439.56;5096068;28;20882;-62
2020/12/13 07:06:26;;;;;;;98.43;28.60;;;;;;;1.29;90.82;100445.63;5095094;28;20856;-61
2020/12/13 07:08:57;;;;;;;100.70;29.60;;;;;;;1.28;90.56;100445.56;5096187;28;20459;-61
2020/12/13 07:11:25;;;;;;;95.70;30.00;;;;;;;1.28;91.11;100455.72;5095346;28;20474;-62
2020/12/13 07:14:01;;;;;;;88.67;28.60;;;;;;;1.32;90.31;100457.69;5096151;28;20466;-61
2020/12/13 07:16:31;;;;;;;104.93;29.80;;;;;;;1.31;90.69;100461.03;5094869;28;20452;-62
2020/12/13 07:19:04;;;;;;;92.90;28.27;;;;;;;1.27;90.94;100459.03;5096411;28;20454;-62
2020/12/13 07:21:30;;;;;;;94.10;30.52;;;;;;;1.32;90.99;100462.78;5095071;28;20565;-62
2020/12/13 07:24:00;;;;;;;113.13;32.87;;;;;;;1.26;91.41;100473.38;5095916;28;20200;-62
2020/12/13 07:26:31;;;;;;;97.60;28.93;;;;;;;1.29;91.11;100471.06;5094770;28;20868;-61
2020/12/13 07:28:58;;;;;;;97.88;30.10;;;;;;;1.36;91.46;100480.03;5096091;28;20482;-62
2020/12/13 07:31:26;;;;;;;101.43;30.57;;;;;;;1.38;91.15;100481.03;5094920;28;20245;-62
2020/12/13 07:33:54;;;;;;;101.80;29.90;;;;;;;1.43;90.61;100487.34;5095716;28;20465;-62
2020/12/13 07:36:21;;;;;;;96.90;32.27;;;;;;;1.27;90.85;100489.53;5094328;28;20514;-61
2020/12/13 07:38:47;;;;;;;92.53;28.83;;;;;;;1.37;91.33;100491.97;5096029;28;20436;-62
2020/12/13 07:41:16;;;;;;;95.10;28.97;;;;;;;1.36;91.27;100482.59;5094924;28;20562;-62
2020/12/13 07:43:54;;;;;;;95.67;30.90;;;;;;;1.37;91.16;100483.50;5095761;28;20464;-62
2020/12/13 07:46:20;;;;;;;93.47;30.70;;;;;;;1.44;90.86;100493.34;5094568;28;20776;-62
2020/12/13 07:48:47;;;;;;;94.17;30.73;;;;;;;1.41;90.72;100494.00;5095761;28;20581;-62
2020/12/13 07:51:14;;;;;;;95.60;27.87;;;;;;;1.32;91.17;100494.19;5094517;28;20539;-61
2020/12/13 07:53:41;;;;;;;94.75;30.08;;;;;;;1.32;91.08;100493.28;5095996;28;20524;-62
2020/12/13 07:56:07;;;;;;;98.17;30.13;;;;;;;1.35;91.45;100496.06;5094268;28;20235;-62
2020/12/13 07:58:35;;;;;;;92.87;30.50;;;;;;;1.39;91.55;100495.50;5095826;28;20532;-62
2020/12/13 08:01:11;;;;;;;89.00;28.27;;;;;;;1.60;91.03;100500.44;5094391;28;20829;-62
2020/12/13 08:03:45;;;;;;;83.30;30.00;;;;;;;1.58;90.87;100499.41;5097455;28;20834;-62
2020/12/13 08:06:14;;;;;;;88.80;29.00;;;;;;;1.57;90.78;100495.13;5097983;28;20522;-62
2020/12/13 08:08:43;;;;;;;86.90;27.77;;;;;;;1.56;90.81;100506.06;5099364;28;20477;-62
2020/12/13 08:11:11;;;;;;;76.87;26.67;;;;;;;1.68;90.40;100509.50;5098225;28;20478;-62
2020/12/13 08:13:48;;;;;;;89.20;28.23;;;;;;;1.47;91.23;100514.78;5099395;28;20440;-61
2020/12/13 08:16:15;;;;;;;96.30;30.37;;;;;;;1.43;91.18;100512.78;5097583;28;20559;-62
2020/12/13 08:18:48;;;;;;;86.73;27.50;;;;;;;1.52;91.53;100516.78;5099409;28;20908;-61
2020/12/13 08:21:19;;;;;;;84.03;27.10;;;;;;;1.58;91.31;100525.75;5097976;28;20445;-62
2020/12/13 08:23:48;;;;;;;77.43;27.60;;;;;;;1.50;90.91;100520.88;5099517;28;20977;-62
2020/12/13 08:26:18;;;;;;;94.33;29.60;;;;;;;1.53;91.29;100518.56;5097815;28;20758;-61
2020/12/13 08:28:47;;;;;;;94.27;29.47;;;;;;;1.58;90.82;100524.84;5099283;28;20484;-61
2020/12/13 08:31:14;;;;;;;101.00;29.87;;;;;;;1.48;91.12;100525.81;5097752;28;20509;-61
2020/12/13 08:33:42;;;;;;;83.50;27.37;;;;;;;1.51;91.64;100537.88;5098947;28;20440;-62
2020/12/13 08:36:19;;;;;;;83.23;30.17;;;;;;;1.48;91.22;100538.53;5097057;28;21161;-61
2020/12/13 08:38:46;;;;;;;97.93;30.40;;;;;;;1.48;91.32;100538.53;5099047;28;20459;-62
2020/12/13 08:41:23;;;;;;;73.13;27.93;;;;;;;1.53;91.16;100544.00;5097217;28;20469;-62
2020/12/13 08:43:51;;;;;;;85.23;27.50;;;;;;;1.57;91.58;100545.97;5098755;28;20428;-61
2020/12/13 08:46:31;;;;;;;90.23;27.67;;;;;;;1.54;91.37;100544.09;5097162;28;20478;-62
2020/12/13 08:48:58;;;;;;;82.57;27.77;;;;;;;1.60;91.26;100541.13;5098840;28;20749;-62
2020/12/13 08:51:26;;;;;;;90.80;29.23;;;;;;;1.68;91.04;100550.22;5097402;28;20574;-62
2020/12/13 08:53:56;;;;;;;81.10;26.87;;;;;;;1.67;90.61;100550.09;5098766;28;20488;-62
2020/12/13 08:56:31;;;;;;;84.00;28.33;;;;;;;1.71;91.10;100555.53;5097499;28;20474;-62
2020/12/13 08:58:59;;;;;;;85.63;28.00;;;;;;;1.72;90.72;100554.78;5098485;28;20449;-62
2020/12/13 09:01:27;;;;;;;85.17;29.10;;;;;;;1.69;90.63;100554.53;5097060;28;20481;-62
2020/12/13 09:03:55;;;;;;;78.67;29.10;;;;;;;1.72;90.80;100552.22;5098829;28;20428;-59
2020/12/13 09:06:28;;;;;;;91.93;31.53;;;;;;;1.85;90.08;100563.31;5097257;28;20477;-59
2020/12/13 09:08:55;;;;;;;83.33;29.10;;;;;;;1.81;89.84;100561.31;5098276;28;20947;-62
2020/12/13 09:11:31;;;;;;;92.03;31.27;;;;;;;1.62;91.11;100565.00;5096911;28;20456;-62
2020/12/13 09:13:59;;;;;;;88.07;30.23;;;;;;;1.73;91.08;100563.25;5097542;28;20525;-62
2020/12/13 09:16:29;;;;;;;79.73;29.07;;;;;;;1.72;91.03;100562.41;5097046;28;20484;-62
2020/12/13 09:19:07;;;;;;;86.57;29.80;;;;;;;1.84;90.45;100574.25;5098208;28;20756;-62
2020/12/13 09:21:45;;;;;;;93.13;29.90;;;;;;;1.71;90.63;100572.44;5096708;28;20465;-62
2020/12/13 09:24:12;;;;;;;86.50;28.37;;;;;;;1.73;90.84;100579.44;5096729;28;20534;-62
2020/12/13 09:26:38;;;;;;;86.70;30.70;;;;;;;1.84;90.58;100584.44;5097913;28;20579;-62
2020/12/13 09:29:06;;;;;;;93.63;30.77;;;;;;;1.78;90.52;100589.94;5098007;28;20549;-62
2020/12/13 09:31:33;;;;;;;80.73;27.43;;;;;;;1.78;90.78;100591.63;5096867;28;20536;-61
2020/12/13 09:33:59;;;;;;;92.93;29.47;;;;;;;1.71;90.85;100586.06;5097491;28;20509;-62
2020/12/13 09:36:26;;;;;;;87.10;28.17;;;;;;;1.74;90.95;100590.47;5096762;28;20439;-61
2020/12/13 09:38:53;;;;;;;91.90;29.17;;;;;;;1.84;90.20;100595.50;5097450;28;20462;-62
2020/12/13 09:41:21;;;;;;;84.47;29.23;;;;;;;1.96;90.12;100603.16;5096641;28;20540;-61
2020/12/13 09:43:49;;;;;;;87.83;29.60;;;;;;;1.94;90.19;100597.06;5097340;28;20807;-61
2020/12/13 09:46:20;;;;;;;86.87;28.87;;;;;;;1.97;89.97;100597.28;5095987;28;20477;-62
2020/12/13 09:48:47;;;;;;;86.30;29.33;;;;;;;1.94;90.20;100591.97;5097488;28;20460;-62
2020/12/13 09:51:17;;;;;;;88.97;29.77;;;;;;;1.85;90.30;100591.28;5096268;28;20750;-62
2020/12/13 09:53:45;;;;;;;87.23;29.17;;;;;;;1.86;90.23;100595.59;5097625;28;20458;-62
2020/12/13 09:56:15;;;;;;;83.03;28.73;;;;;;;1.85;91.09;100598.94;5096099;28;20573;-62
2020/12/13 09:58:43;;;;;;;93.83;31.17;;;;;;;1.89;90.44;100603.44;5095365;28;20430;-59
2020/12/13 10:01:09;;;;;;;89.93;28.90;;;;;;;1.96;90.07;100607.34;5091649;28;20455;-60
2020/12/13 10:03:39;;;;;;;83.37;30.37;;;;;;;1.96;90.25;100604.81;5097275;28;20460;-55
2020/12/13 10:06:26;;;;;;;90.73;31.90;;;;;;;2.02;90.11;100598.50;5095332;28;20489;-62
2020/12/13 10:09:01;;;;;;;98.50;32.40;;;;;;;1.86;90.63;100598.16;5096989;28;20556;-58
2020/12/13 10:11:28;;;;;;;83.93;30.50;;;;;;;1.89;90.51;100591.63;5094306;28;20463;-57
2020/12/13 10:13:55;;;;;;;99.50;31.20;;;;;;;1.92;90.77;100600.25;5096630;28;20469;-58
2020/12/13 10:16:22;;;;;;;87.30;29.50;;;;;;;1.90;90.97;100602.72;5095624;28;20532;-57
2020/12/13 10:18:49;;;;;;;85.13;28.70;;;;;;;2.08;90.74;100599.72;5096821;28;20456;-58
2020/12/13 10:21:20;;;;;;;85.53;30.70;;;;;;;1.92;90.54;100592.63;5095506;28;20926;-55
2020/12/13 10:23:49;;;;;;;102.50;30.13;;;;;;;1.92;90.59;100590.97;5096759;28;20533;-60
2020/12/13 10:26:15;;;;;;;99.43;32.50;;;;;;;2.08;90.60;100592.09;5093957;28;20463;-59
2020/12/13 10:28:42;;;;;;;88.77;29.87;;;;;;;2.02;90.56;100593.41;5096858;28;20539;-59
2020/12/13 10:31:10;;;;;;;93.13;30.90;;;;;;;1.93;90.90;100602.91;5095144;28;20459;-57
2020/12/13 10:33:40;;;;;;;97.17;30.80;;;;;;;1.92;91.03;100601.16;5096717;28;20433;-59
2020/12/13 10:36:12;;;;;;;92.10;30.67;;;;;;;1.97;90.60;100597.28;5094238;28;20472;-54
2020/12/13 10:38:40;;;;;;;82.67;28.60;;;;;;;2.10;90.65;100604.16;5096157;28;20478;-61
2020/12/13 10:41:07;;;;;;;98.73;31.93;;;;;;;2.18;90.10;100604.72;5095034;28;20466;-60
2020/12/13 10:43:34;;;;;;;106.90;32.23;;;;;;;2.08;90.34;100612.44;5096367;28;20550;-61
2020/12/13 10:46:05;;;;;;;99.03;30.83;;;;;;;2.16;90.26;100606.28;5094697;28;20925;-59
2020/12/13 10:48:32;;;;;;;90.63;31.23;;;;;;;1.94;91.11;100608.91;5096399;28;20571;-58
2020/12/13 10:50:59;;;;;;;96.10;31.40;;;;;;;2.12;91.06;100607.72;5094834;28;20553;-57
2020/12/13 10:53:27;;;;;;;102.50;32.80;;;;;;;2.21;90.62;100598.97;5096390;28;20433;-61
2020/12/13 10:55:54;;;;;;;93.30;32.17;;;;;;;2.22;90.59;100591.47;5094486;28;20528;-58
2020/12/13 10:58:21;;;;;;;105.03;31.80;;;;;;;2.20;90.62;100602.31;5096062;28;20500;-56
2020/12/13 11:00:48;;;;;;;95.33;29.80;;;;;;;2.14;90.94;100602.72;5094883;28;20973;-56
2020/12/13 11:03:15;;;;;;;103.47;31.77;;;;;;;2.19;90.79;100591.22;5096137;28;20520;-60
2020/12/13 11:05:43;;;;;;;112.80;32.97;;;;;;;2.20;90.75;100600.63;5094455;28;20453;-59
2020/12/13 11:08:10;;;;;;;106.47;32.23;;;;;;;2.22;90.50;100598.19;5096064;28;20486;-60
2020/12/13 11:10:37;;;;;;;105.50;33.50;;;;;;;2.19;91.20;100598.84;5094740;28;20467;-59
2020/12/13 11:13:04;;;;;;;102.80;32.33;;;;;;;2.11;91.42;100587.25;5095951;28;20454;-61
2020/12/13 11:15:31;;;;;;;87.53;30.23;;;;;;;2.12;90.61;100589.91;5094199;28;20557;-60
2020/12/13 11:17:57;;;;;;;105.30;32.37;;;;;;;2.19;91.23;100575.94;5096078;28;20428;-61
2020/12/13 11:20:25;;;;;;;118.50;33.70;;;;;;;2.31;90.81;100580.16;5094699;28;20478;-61
2020/12/13 11:22:52;;;;;;;104.00;36.13;;;;;;;2.35;91.01;100582.16;5095966;28;20463;-61
2020/12/13 11:25:19;;;;;;;90.07;31.97;;;;;;;2.37;90.59;100588.25;5094447;28;20453;-61